Time;durP1;ratioP1;P1;durP2;ratioP2;P2;SDS_P1;SDS_P2;PMS_P1;PMS_P2;Temp;Humidity;BMP_temperature;BMP_pressure;BME280_temperature;BME280_humidity;BME280_pressure;Samples;Min_cycle;Max_cycle;Signal;HPM_P1;HPM_P2
2021/07/09 00:01:56;;;;;;;7.28;4.10;;;;;;;19.41;71.44;101662.41;4989686;28;20082;-82
2021/07/09 00:04:22;;;;;;;11.57;3.92;;;;;;;19.43;71.36;101660.72;4976475;28;20034;-81
2021/07/09 00:06:48;;;;;;;6.93;3.80;;;;;;;19.45;71.07;101658.16;4976445;28;20030;-81
2021/07/09 00:09:14;;;;;;;8.35;4.18;;;;;;;19.45;70.91;101656.41;4980397;28;20563;-80
2021/07/09 00:11:43;;;;;;;9.05;3.95;;;;;;;19.46;70.80;101655.56;4995944;28;20030;-83
2021/07/09 00:14:10;;;;;;;9.40;3.55;;;;;;;19.46;70.81;101655.56;4962341;28;20038;-82
2021/07/09 00:16:41;;;;;;;5.93;4.10;;;;;;;19.48;70.86;101658.25;4995530;28;20440;-86
2021/07/09 00:19:07;;;;;;;5.25;3.38;;;;;;;19.47;70.87;101652.13;4994743;28;20030;-83
2021/07/09 00:21:34;;;;;;;7.95;4.15;;;;;;;19.40;70.95;101644.94;4995873;28;20037;-84
2021/07/09 00:24:01;;;;;;;9.10;3.90;;;;;;;19.41;70.77;101641.50;4995407;28;20031;-84
2021/07/09 00:26:28;;;;;;;4.07;2.83;;;;;;;19.41;70.60;101642.41;4979565;28;20041;-81
2021/07/09 00:28:54;;;;;;;8.27;3.25;;;;;;;19.44;70.45;101636.34;4983349;28;20023;-82
2021/07/09 00:31:20;;;;;;;8.02;3.38;;;;;;;19.45;70.20;101638.13;4977871;28;20085;-81
2021/07/09 00:33:46;;;;;;;8.73;3.20;;;;;;;19.42;70.33;101633.72;4995735;28;20089;-81
2021/07/09 00:36:11;;;;;;;7.22;3.13;;;;;;;19.40;70.30;101634.50;4995580;28;20031;-82
2021/07/09 00:38:37;;;;;;;8.43;3.83;;;;;;;19.38;70.01;101631.88;4994329;28;20109;-82
2021/07/09 00:41:02;;;;;;;6.13;2.92;;;;;;;19.39;69.88;101632.72;4977621;28;20037;-81
2021/07/09 00:43:28;;;;;;;5.35;2.65;;;;;;;19.40;69.85;101634.50;4977364;28;20037;-82
2021/07/09 00:45:53;;;;;;;10.55;3.03;;;;;;;19.40;69.42;101639.72;4995195;28;20034;-82
2021/07/09 00:48:19;;;;;;;10.38;2.88;;;;;;;19.40;69.62;101644.94;4993874;28;20026;-81
2021/07/09 00:50:45;;;;;;;5.68;2.88;;;;;;;19.43;69.66;101639.81;4977286;28;20023;-82
2021/07/09 00:53:11;;;;;;;8.38;3.10;;;;;;;19.43;69.76;101639.81;4977920;28;20033;-85
2021/07/09 00:55:37;;;;;;;6.53;2.70;;;;;;;19.43;69.40;101650.25;4977290;28;20026;-83
2021/07/09 00:58:03;;;;;;;7.40;2.92;;;;;;;19.43;69.76;101650.25;4994954;28;20033;-84
2021/07/09 01:00:29;;;;;;;10.65;3.42;;;;;;;19.42;69.82;101648.50;4977471;28;20030;-83
2021/07/09 01:02:56;;;;;;;11.30;3.00;;;;;;;19.39;69.84;101651.03;4977660;28;20030;-83
2021/07/09 01:05:22;;;;;;;6.20;4.03;;;;;;;19.37;69.67;101645.78;4977551;28;20117;-81
2021/07/09 01:07:47;;;;;;;16.05;3.45;;;;;;;19.39;69.84;101648.41;4977602;28;20065;-79
2021/07/09 01:10:15;;;;;;;7.18;3.58;;;;;;;19.38;69.80;101650.16;4977106;28;20140;-81
2021/07/09 01:12:42;;;;;;;7.05;3.60;;;;;;;19.34;70.06;101645.69;4977362;28;20034;-80
2021/07/09 01:15:10;;;;;;;7.03;3.42;;;;;;;19.33;70.16;101648.22;4993872;28;20022;-81
2021/07/09 01:17:36;;;;;;;8.43;3.13;;;;;;;19.31;70.24;101642.06;4993414;28;20365;-82
2021/07/09 01:20:06;;;;;;;7.30;3.45;;;;;;;19.33;70.35;101638.69;4976885;28;20483;-81
2021/07/09 01:22:33;;;;;;;8.05;3.72;;;;;;;19.32;70.45;101636.91;4977256;28;20030;-82
2021/07/09 01:24:59;;;;;;;4.97;3.42;;;;;;;19.33;70.28;101632.56;4977243;28;20236;-81
2021/07/09 01:27:25;;;;;;;13.52;3.67;;;;;;;19.31;70.44;101629.91;4977509;28;20030;-82
2021/07/09 01:29:51;;;;;;;8.50;3.97;;;;;;;19.32;70.24;101630.78;4977019;28;20030;-82
2021/07/09 01:32:16;;;;;;;6.05;3.22;;;;;;;19.31;70.51;101634.25;4976723;28;20033;-83
2021/07/09 01:34:42;;;;;;;6.15;3.50;;;;;;;19.31;70.47;101635.13;4993331;28;20445;-81
2021/07/09 01:37:15;;;;;;;9.00;3.58;;;;;;;19.33;70.29;101637.78;4976904;28;20026;-81
2021/07/09 01:39:42;;;;;;;10.15;3.53;;;;;;;19.32;70.46;101630.78;4993365;28;20198;-82
2021/07/09 01:42:07;;;;;;;8.35;3.33;;;;;;;19.30;70.51;101622.03;4976852;28;20076;-81
2021/07/09 01:44:33;;;;;;;7.65;3.58;;;;;;;19.26;70.57;101621.94;4976488;28;20030;-81
2021/07/09 01:46:59;;;;;;;7.57;3.22;;;;;;;19.25;70.52;101609.72;4976983;28;20434;-82
2021/07/09 01:49:25;;;;;;;9.07;3.20;;;;;;;19.22;70.47;101604.41;4992835;28;20056;-82
2021/07/09 01:51:50;;;;;;;8.48;3.22;;;;;;;19.23;70.52;101616.63;4993818;28;20042;-82
2021/07/09 01:54:16;;;;;;;6.93;3.55;;;;;;;19.22;70.67;101622.69;4993780;28;20042;-80
2021/07/09 01:56:42;;;;;;;12.02;3.70;;;;;;;19.21;70.54;101626.13;4994035;28;20034;-82
2021/07/09 01:59:07;;;;;;;8.18;3.65;;;;;;;19.21;70.32;101623.53;4993823;28;20026;-81
2021/07/09 02:01:33;;;;;;;9.88;3.38;;;;;;;19.16;70.64;101627.72;4993567;28;20027;-81
2021/07/09 02:03:58;;;;;;;8.00;3.50;;;;;;;19.15;70.73;101617.25;4993924;28;20030;-81
2021/07/09 02:06:24;;;;;;;6.32;3.58;;;;;;;19.12;70.70;101618.03;4993722;28;20074;-81
2021/07/09 02:08:49;;;;;;;6.28;3.20;;;;;;;19.09;70.81;101623.16;4991290;28;20030;-81
2021/07/09 02:11:14;;;;;;;11.63;3.55;;;;;;;19.07;71.07;101624.84;4994125;28;20041;-82
2021/07/09 02:13:40;;;;;;;9.93;3.72;;;;;;;19.05;70.82;101626.53;4993773;28;20227;-82
2021/07/09 02:16:05;;;;;;;8.23;3.45;;;;;;;19.01;71.07;101624.66;4993579;28;20034;-84
2021/07/09 02:18:31;;;;;;;11.48;3.90;;;;;;;18.97;71.02;101635.03;4992253;28;20037;-82
2021/07/09 02:20:57;;;;;;;8.77;3.75;;;;;;;18.93;71.24;101622.69;4993721;28;20037;-85
2021/07/09 02:23:23;;;;;;;7.00;3.33;;;;;;;18.94;71.20;101639.22;4992187;28;20026;-83
2021/07/09 02:25:48;;;;;;;6.00;3.45;;;;;;;18.91;71.14;101629.56;4994107;28;20038;-84
2021/07/09 02:28:14;;;;;;;7.80;3.80;;;;;;;18.89;71.08;101631.25;4993578;28;20026;-83
2021/07/09 02:30:40;;;;;;;11.70;3.88;;;;;;;18.82;71.53;101629.31;4992289;28;20113;-84
2021/07/09 02:33:05;;;;;;;6.85;3.63;;;;;;;18.80;71.67;101636.19;4993291;28;20029;-83
2021/07/09 02:35:35;;;;;;;11.40;4.18;;;;;;;18.77;71.68;101636.09;4993416;28;20038;-80
2021/07/09 02:38:01;;;;;;;6.50;3.50;;;;;;;18.76;71.88;101634.34;4976157;28;20026;-82
2021/07/09 02:40:29;;;;;;;10.38;3.90;;;;;;;18.65;72.41;101621.84;4976134;28;20022;-80
2021/07/09 02:42:58;;;;;;;5.65;3.90;;;;;;;18.66;72.42;101628.81;4976048;28;20026;-83
2021/07/09 02:45:24;;;;;;;11.27;4.82;;;;;;;18.67;72.21;101630.59;4975826;28;20027;-87
2021/07/09 02:47:50;;;;;;;7.30;4.32;;;;;;;18.66;72.26;101623.59;4959789;28;20033;-86
2021/07/09 02:50:21;;;;;;;12.57;4.57;;;;;;;18.67;72.30;101625.38;4993093;28;20026;-83
2021/07/09 02:52:46;;;;;;;9.57;4.38;;;;;;;18.65;72.25;101621.84;4975675;28;20034;-81
2021/07/09 02:55:13;;;;;;;8.95;4.40;;;;;;;18.68;72.32;101632.38;4975825;28;20023;-78
2021/07/09 02:57:41;;;;;;;13.10;4.20;;;;;;;18.65;72.64;101627.06;4992180;28;20037;-80
2021/07/09 03:00:09;;;;;;;4.75;3.50;;;;;;;18.71;72.45;101626.34;4975831;28;20486;-80
2021/07/09 03:02:35;;;;;;;8.68;4.00;;;;;;;18.68;72.33;101621.94;4975564;28;20038;-80
2021/07/09 03:05:00;;;;;;;8.98;3.72;;;;;;;18.74;72.59;101615.13;4975860;28;20038;-82
2021/07/09 03:07:26;;;;;;;9.60;4.03;;;;;;;18.74;72.18;101609.91;4992814;28;20061;-80
2021/07/09 03:09:52;;;;;;;11.13;4.15;;;;;;;18.75;72.24;101606.47;4988560;28;20074;-80
2021/07/09 03:12:17;;;;;;;12.90;4.10;;;;;;;18.75;72.55;101609.06;4988713;28;20034;-80
2021/07/09 03:14:43;;;;;;;7.75;3.58;;;;;;;18.76;72.18;101605.63;4973692;28;20077;-79
2021/07/09 03:17:08;;;;;;;12.20;3.90;;;;;;;18.76;72.32;101603.00;4973798;28;20117;-83
2021/07/09 03:19:34;;;;;;;7.93;3.72;;;;;;;18.75;72.72;101606.47;4977521;28;20113;-80
2021/07/09 03:21:59;;;;;;;10.68;3.60;;;;;;;18.77;72.46;101599.56;4979303;28;20042;-81
2021/07/09 03:24:25;;;;;;;10.75;3.53;;;;;;;18.77;72.24;101610.00;4974458;28;20042;-82
2021/07/09 03:26:50;;;;;;;11.02;3.95;;;;;;;18.80;72.45;101610.97;4976237;28;20018;-82
2021/07/09 03:29:16;;;;;;;10.68;4.13;;;;;;;18.81;72.13;101604.03;4975813;28;20472;-81
2021/07/09 03:31:41;;;;;;;10.38;3.78;;;;;;;18.82;72.42;101605.81;4981406;28;20122;-81
2021/07/09 03:34:07;;;;;;;7.30;3.92;;;;;;;18.85;72.46;101598.06;4986026;28;20023;-80
2021/07/09 03:36:32;;;;;;;14.55;3.97;;;;;;;18.84;72.40;101591.09;4985021;28;20046;-79
2021/07/09 03:38:58;;;;;;;14.13;4.28;;;;;;;18.84;72.09;101585.88;4985672;28;20443;-80
2021/07/09 03:41:24;;;;;;;8.00;3.60;;;;;;;18.84;72.39;101591.09;4983517;28;20022;-84
2021/07/09 03:43:51;;;;;;;10.70;3.72;;;;;;;18.86;72.75;101594.63;4969153;28;20027;-84
2021/07/09 03:46:16;;;;;;;4.00;3.53;;;;;;;18.88;72.82;101595.56;4991349;28;20033;-84
2021/07/09 03:48:42;;;;;;;12.63;3.95;;;;;;;18.88;72.76;101592.94;5001926;28;20031;-85
2021/07/09 03:51:08;;;;;;;7.15;4.13;;;;;;;18.88;72.15;101606.00;4976678;28;20110;-86
2021/07/09 03:53:34;;;;;;;12.07;5.13;;;;;;;18.87;72.26;101591.19;4975808;28;20085;-86
2021/07/09 03:56:05;;;;;;;15.57;4.57;;;;;;;18.84;72.55;101586.72;4975830;28;20085;-85
2021/07/09 03:58:32;;;;;;;10.48;4.72;;;;;;;18.85;72.70;101582.41;4976805;28;20040;-85
2021/07/09 04:00:58;;;;;;;11.18;4.63;;;;;;;18.81;72.69;101585.78;4974536;28;20106;-82
2021/07/09 04:03:24;;;;;;;19.83;4.30;;;;;;;18.80;72.60;101594.44;4975620;28;20519;-86
2021/07/09 04:05:49;;;;;;;9.15;4.25;;;;;;;18.81;72.65;101591.00;4975197;28;20097;-83
2021/07/09 04:08:15;;;;;;;10.13;4.03;;;;;;;18.82;72.61;101587.53;4974265;28;20033;-84
2021/07/09 04:10:40;;;;;;;7.68;4.50;;;;;;;18.78;72.78;101578.72;4991714;28;20051;-84
2021/07/09 04:13:06;;;;;;;18.10;4.90;;;;;;;18.82;72.89;101577.09;4977034;28;20512;-83
2021/07/09 04:15:32;;;;;;;12.85;5.07;;;;;;;18.81;72.89;101575.34;4976176;28;20072;-85
2021/07/09 04:17:57;;;;;;;10.75;4.80;;;;;;;18.83;72.84;101571.03;4975371;28;20031;-80
2021/07/09 04:20:23;;;;;;;12.25;4.70;;;;;;;18.82;72.94;101557.09;4991673;28;20038;-81
2021/07/09 04:22:48;;;;;;;12.77;4.88;;;;;;;18.84;73.15;101549.31;4975181;28;20269;-79
2021/07/09 04:25:13;;;;;;;17.63;4.32;;;;;;;18.85;72.93;101545.88;4991250;28;20026;-79
2021/07/09 04:27:41;;;;;;;10.63;4.68;;;;;;;18.84;73.12;101536.28;4976311;28;20054;-80
2021/07/09 04:30:08;;;;;;;11.60;4.35;;;;;;;18.89;72.92;101541.63;4975452;28;20027;-80
2021/07/09 04:32:34;;;;;;;10.13;4.65;;;;;;;18.91;73.10;101538.22;4975336;28;20101;-80
2021/07/09 04:34:59;;;;;;;17.35;5.47;;;;;;;18.93;72.97;101544.38;4976413;28;20101;-79
2021/07/09 04:37:24;;;;;;;12.80;5.53;;;;;;;18.93;72.88;101539.16;4974594;28;20085;-81
2021/07/09 04:39:50;;;;;;;15.68;5.57;;;;;;;18.94;73.10;101551.34;4977354;28;20034;-80
2021/07/09 04:42:15;;;;;;;7.68;4.72;;;;;;;18.97;72.94;101556.72;4976273;28;20035;-80
2021/07/09 04:44:41;;;;;;;10.77;5.00;;;;;;;19.01;73.33;101551.56;4975952;28;20037;-78
2021/07/09 04:47:07;;;;;;;14.07;5.75;;;;;;;19.02;73.16;101542.91;4974690;28;20110;-81
2021/07/09 04:49:32;;;;;;;7.57;4.60;;;;;;;19.03;73.21;101535.09;4990831;28;20477;-79
2021/07/09 04:51:58;;;;;;;10.30;4.65;;;;;;;19.08;73.08;101537.84;4990543;28;20085;-80
2021/07/09 04:54:24;;;;;;;12.50;5.10;;;;;;;19.11;73.29;101532.72;4974685;28;20045;-80
2021/07/09 04:56:49;;;;;;;9.43;4.45;;;;;;;19.14;73.37;101532.78;4979998;28;20530;-79
2021/07/09 04:59:15;;;;;;;12.52;4.70;;;;;;;19.18;72.98;101539.88;4974306;28;20030;-80
2021/07/09 05:01:40;;;;;;;6.72;4.03;;;;;;;19.24;73.07;101537.44;4974552;28;20026;-79
2021/07/09 05:04:07;;;;;;;15.57;3.95;;;;;;;19.26;73.18;101548.81;4974489;28;20047;-80
2021/07/09 05:06:34;;;;;;;7.95;4.13;;;;;;;19.30;73.19;101543.66;4974135;28;20038;-79
2021/07/09 05:09:00;;;;;;;8.68;4.28;;;;;;;19.34;73.08;101550.75;4975497;28;20039;-80
2021/07/09 05:11:25;;;;;;;6.85;3.97;;;;;;;19.35;73.09;101547.28;4977646;28;20057;-80
2021/07/09 05:13:51;;;;;;;9.05;3.88;;;;;;;19.35;72.94;101547.28;4994773;28;20061;-79
2021/07/09 05:16:17;;;;;;;5.30;3.80;;;;;;;19.38;73.04;101553.50;4994603;28;20026;-80
2021/07/09 05:18:43;;;;;;;6.72;3.60;;;;;;;19.41;72.86;101552.69;4994015;28;20026;-80
2021/07/09 05:21:09;;;;;;;7.30;3.90;;;;;;;19.45;73.01;101554.53;4993834;28;20026;-79
2021/07/09 05:23:34;;;;;;;10.45;4.18;;;;;;;19.48;72.69;101549.38;4993516;28;20027;-79
2021/07/09 05:26:00;;;;;;;7.97;3.80;;;;;;;19.49;72.84;101545.94;4994588;28;20037;-80
2021/07/09 05:28:25;;;;;;;11.57;4.10;;;;;;;19.50;72.88;101539.88;4993515;28;20018;-79
2021/07/09 05:30:51;;;;;;;6.78;3.80;;;;;;;19.55;72.92;101548.72;4994172;28;20066;-80
2021/07/09 05:33:17;;;;;;;6.03;2.85;;;;;;;19.59;72.87;101536.63;4994587;28;20026;-80
2021/07/09 05:35:44;;;;;;;13.63;3.50;;;;;;;19.65;73.01;101530.69;4994218;28;20493;-80
2021/07/09 05:38:10;;;;;;;8.75;3.70;;;;;;;19.67;72.34;101539.44;4993233;28;20041;-78
2021/07/09 05:40:35;;;;;;;4.47;3.20;;;;;;;19.71;72.26;101536.06;4994182;28;20030;-79
2021/07/09 05:43:03;;;;;;;8.88;3.50;;;;;;;19.74;72.19;101530.94;4976840;28;20113;-79
2021/07/09 05:45:30;;;;;;;9.15;4.70;;;;;;;19.74;72.29;101528.31;4977424;28;20023;-79
2021/07/09 05:47:56;;;;;;;6.95;3.55;;;;;;;19.74;72.33;101530.94;4994403;28;20026;-80
2021/07/09 05:50:22;;;;;;;9.18;3.67;;;;;;;19.79;72.63;101524.09;4993925;28;20026;-80
2021/07/09 05:52:48;;;;;;;7.80;3.45;;;;;;;19.81;72.57;101527.63;4960461;28;20053;-78
2021/07/09 05:55:14;;;;;;;9.25;3.92;;;;;;;19.80;71.61;101528.47;4993015;28;20468;-79
2021/07/09 05:57:40;;;;;;;7.57;3.80;;;;;;;19.85;71.98;101529.47;4993006;28;20138;-80
2021/07/09 06:00:07;;;;;;;6.15;3.25;;;;;;;19.85;72.28;101534.69;4976484;28;20041;-80
2021/07/09 06:02:33;;;;;;;7.82;3.10;;;;;;;19.91;71.84;101538.34;4976623;28;20436;-83
2021/07/09 06:04:58;;;;;;;8.68;3.20;;;;;;;19.95;71.57;101542.78;4976701;28;20049;-82
2021/07/09 06:07:24;;;;;;;7.47;3.30;;;;;;;19.99;71.46;101536.78;4993878;28;20037;-82
2021/07/09 06:09:49;;;;;;;7.30;3.75;;;;;;;20.01;72.01;101529.88;4993399;28;20077;-81
2021/07/09 06:12:14;;;;;;;11.45;3.70;;;;;;;20.03;72.38;101533.41;4993810;28;20037;-82
2021/07/09 06:14:40;;;;;;;7.75;4.38;;;;;;;20.04;72.07;101535.16;4993654;28;20475;-80
2021/07/09 06:17:05;;;;;;;10.73;4.43;;;;;;;20.06;72.39;101533.47;4993782;28;20034;-82
2021/07/09 06:19:31;;;;;;;7.78;3.78;;;;;;;20.10;72.20;101534.41;4976010;28;20018;-79
2021/07/09 06:21:57;;;;;;;6.82;3.58;;;;;;;20.15;72.50;101527.59;4976250;28;20022;-81
2021/07/09 06:24:23;;;;;;;6.05;4.28;;;;;;;20.17;72.76;101530.22;4976147;28;20030;-83
2021/07/09 06:26:48;;;;;;;6.05;3.92;;;;;;;20.15;72.74;101527.59;4993533;28;20058;-83
2021/07/09 06:29:14;;;;;;;6.97;3.85;;;;;;;20.20;72.71;101525.97;4992518;28;20026;-85
2021/07/09 06:31:39;;;;;;;6.45;3.92;;;;;;;20.25;72.72;101523.44;4991096;28;20097;-85
2021/07/09 06:34:05;;;;;;;6.72;3.40;;;;;;;20.28;73.27;101527.03;4991066;28;20101;-85
2021/07/09 06:36:30;;;;;;;10.95;4.10;;;;;;;20.28;72.92;101532.25;4990744;28;20472;-83
2021/07/09 06:38:55;;;;;;;10.98;4.30;;;;;;;20.32;72.49;101535.81;4974797;28;20025;-85
2021/07/09 06:41:21;;;;;;;8.82;3.75;;;;;;;20.33;72.71;101521.91;4990903;28;20121;-82
2021/07/09 06:43:46;;;;;;;6.53;3.88;;;;;;;20.37;72.64;101518.50;4990789;28;20026;-82
2021/07/09 06:46:12;;;;;;;8.93;3.97;;;;;;;20.40;73.26;101512.47;4991720;28;20026;-85
2021/07/09 06:48:38;;;;;;;8.93;3.95;;;;;;;20.44;73.03;101520.41;4990442;28;20038;-84
2021/07/09 06:51:04;;;;;;;8.18;4.03;;;;;;;20.48;72.60;101520.47;4974782;28;20026;-82
2021/07/09 06:53:29;;;;;;;6.97;4.28;;;;;;;20.51;72.54;101515.31;4975318;28;20030;-79
2021/07/09 06:55:54;;;;;;;7.10;3.58;;;;;;;20.53;72.09;101518.84;4995747;28;20042;-82
2021/07/09 06:58:20;;;;;;;6.25;3.28;;;;;;;20.55;71.80;101517.13;4994716;28;20117;-84
2021/07/09 07:00:45;;;;;;;10.18;3.58;;;;;;;20.57;72.25;101515.44;4995973;28;20112;-80
2021/07/09 07:03:11;;;;;;;5.10;3.10;;;;;;;20.62;72.09;101512.94;4994678;28;20056;-82
2021/07/09 07:05:36;;;;;;;4.78;3.40;;;;;;;20.65;72.25;101513.88;4994410;28;20037;-83
2021/07/09 07:08:31;;;;;;;6.45;3.17;;;;;;;20.76;71.92;101515.84;4978385;28;20154;-85
2021/07/09 07:10:58;;;;;;;10.88;3.25;;;;;;;20.80;71.44;101522.94;4962179;28;20404;-85
2021/07/09 07:13:25;;;;;;;8.32;3.15;;;;;;;20.86;70.49;101528.31;4976234;28;20054;-84
2021/07/09 07:15:51;;;;;;;6.22;3.17;;;;;;;20.89;70.12;101523.16;4964122;28;20037;-82
2021/07/09 07:18:17;;;;;;;5.03;2.47;;;;;;;20.94;69.62;101521.50;4977437;28;20061;-82
2021/07/09 07:20:45;;;;;;;3.78;2.30;;;;;;;20.96;69.54;101525.03;4994335;28;20085;-79
2021/07/09 07:23:15;;;;;;;4.13;2.42;;;;;;;20.97;67.45;101521.56;4995804;28;20030;-83
2021/07/09 07:25:41;;;;;;;7.15;2.35;;;;;;;20.96;67.80;101517.19;4995421;28;20022;-80
2021/07/09 07:28:06;;;;;;;4.57;2.20;;;;;;;20.98;68.39;101520.72;4977936;28;20434;-78
2021/07/09 07:30:33;;;;;;;4.03;2.50;;;;;;;20.98;67.92;101510.22;4978116;28;20030;-83
2021/07/09 07:32:59;;;;;;;4.43;2.70;;;;;;;20.96;67.68;101514.56;4977547;28;20022;-83
2021/07/09 07:35:24;;;;;;;9.82;3.65;;;;;;;20.96;68.92;101504.09;4994210;28;20468;-81
2021/07/09 07:37:50;;;;;;;7.57;2.80;;;;;;;20.97;68.87;101526.81;4994835;28;20074;-81
2021/07/09 07:40:16;;;;;;;6.30;2.83;;;;;;;20.97;69.24;101532.03;4961645;28;20424;-80
2021/07/09 07:42:42;;;;;;;6.25;2.80;;;;;;;20.98;69.52;101535.53;4977802;28;20109;-82
2021/07/09 07:45:08;;;;;;;8.98;3.35;;;;;;;21.00;69.51;101536.44;4977586;28;20546;-80
2021/07/09 07:47:34;;;;;;;6.15;3.33;;;;;;;21.02;69.82;101538.25;4994810;28;20057;-85
2021/07/09 07:49:59;;;;;;;10.13;3.47;;;;;;;21.07;69.75;101542.69;4994260;28;20065;-82
2021/07/09 07:52:25;;;;;;;4.85;2.95;;;;;;;21.09;69.26;101541.00;4980239;28;20117;-85
2021/07/09 07:54:50;;;;;;;6.88;3.45;;;;;;;21.08;69.14;101534.84;4978715;28;20034;-80
2021/07/09 07:57:16;;;;;;;5.63;2.72;;;;;;;21.09;69.27;101530.50;4994806;28;20065;-82
2021/07/09 07:59:42;;;;;;;4.15;2.47;;;;;;;21.08;68.67;101526.13;4978830;28;20066;-83
2021/07/09 08:02:08;;;;;;;4.80;3.03;;;;;;;21.13;68.96;101532.34;4996164;28;20026;-82
2021/07/09 08:04:33;;;;;;;6.28;2.95;;;;;;;21.19;68.50;101535.06;4977588;28;20026;-81
2021/07/09 08:06:59;;;;;;;7.68;2.88;;;;;;;21.22;68.49;101527.28;4994004;28;20034;-87
2021/07/09 08:09:24;;;;;;;5.28;3.05;;;;;;;21.24;68.22;101525.56;4959469;28;20408;-80
2021/07/09 08:11:51;;;;;;;7.13;3.80;;;;;;;21.24;68.36;101525.56;4976533;28;20109;-78
2021/07/09 08:14:17;;;;;;;3.78;2.75;;;;;;;21.30;68.46;101535.28;4962807;28;20037;-79
2021/07/09 08:16:43;;;;;;;12.32;3.50;;;;;;;21.34;68.19;101536.22;4995931;28;20033;-81
2021/07/09 08:19:08;;;;;;;8.00;2.88;;;;;;;21.36;68.21;101534.50;4978456;28;20388;-79
2021/07/09 08:21:33;;;;;;;5.47;2.97;;;;;;;21.38;68.69;101538.03;4977685;28;20033;-80
2021/07/09 08:23:59;;;;;;;5.85;2.70;;;;;;;21.39;67.82;101539.81;4994327;28;20045;-83
2021/07/09 08:26:26;;;;;;;9.25;2.97;;;;;;;21.40;67.97;101539.84;4978505;28;20445;-74
2021/07/09 08:28:51;;;;;;;10.65;3.00;;;;;;;21.44;68.59;101538.16;4961834;28;20018;-74
2021/07/09 08:31:17;;;;;;;9.23;3.10;;;;;;;21.49;68.69;101544.38;4995951;28;20033;-73
2021/07/09 08:33:42;;;;;;;6.32;2.80;;;;;;;21.54;68.92;101545.34;4994654;28;20542;-74
2021/07/09 08:36:08;;;;;;;5.20;2.97;;;;;;;21.59;68.14;101538.44;4978084;28;20113;-73
2021/07/09 08:38:33;;;;;;;5.57;3.10;;;;;;;21.60;67.27;101544.56;4993700;28;20034;-74
2021/07/09 08:40:59;;;;;;;8.40;3.20;;;;;;;21.62;67.24;101542.88;4978201;28;20029;-74
2021/07/09 08:43:24;;;;;;;5.50;3.17;;;;;;;21.73;67.76;101541.34;4978301;28;20463;-74
2021/07/09 08:45:50;;;;;;;4.97;2.80;;;;;;;21.95;67.94;101543.44;4995555;28;20031;-75
2021/07/09 08:48:16;;;;;;;8.93;3.38;;;;;;;21.94;67.71;101539.06;4993685;28;20031;-74
2021/07/09 08:50:41;;;;;;;4.55;2.90;;;;;;;22.04;68.26;101548.84;4959990;28;20544;-74
2021/07/09 08:53:07;;;;;;;5.57;3.65;;;;;;;22.11;66.88;101548.09;4976237;28;20118;-74
2021/07/09 08:55:32;;;;;;;7.65;3.63;;;;;;;22.09;66.05;101544.56;4976287;28;20031;-74
2021/07/09 08:57:58;;;;;;;8.10;3.67;;;;;;;22.02;67.09;101542.69;5002408;28;20105;-74
2021/07/09 09:00:26;;;;;;;7.10;3.60;;;;;;;21.98;67.49;101540.88;5002780;28;20022;-74
2021/07/09 09:02:53;;;;;;;8.75;3.83;;;;;;;21.97;67.58;101533.88;4985877;28;20065;-74
2021/07/09 09:05:26;;;;;;;7.35;3.65;;;;;;;21.95;66.10;101533.84;5002073;28;20026;-74
2021/07/09 09:07:59;;;;;;;7.60;3.50;;;;;;;21.92;67.38;101531.16;4983280;28;20105;-74
2021/07/09 09:10:38;;;;;;;5.47;3.40;;;;;;;21.97;67.71;101533.88;4981086;28;20511;-78
2021/07/09 09:13:16;;;;;;;5.75;3.30;;;;;;;22.20;66.09;101533.34;5000437;28;20100;-80
2021/07/09 09:15:44;;;;;;;5.60;2.88;;;;;;;22.33;64.50;101524.78;5001835;28;20018;-81
2021/07/09 09:18:29;;;;;;;7.03;3.38;;;;;;;22.47;64.44;101515.41;5001255;28;20018;-80
2021/07/09 09:21:00;;;;;;;6.80;3.25;;;;;;;22.64;64.66;101521.75;5001648;28;20428;-80
2021/07/09 09:23:26;;;;;;;8.15;3.47;;;;;;;22.63;63.54;101515.59;5002403;28;20029;-80
2021/07/09 09:25:52;;;;;;;7.68;3.20;;;;;;;22.70;64.21;101522.69;4974828;28;20034;-80
2021/07/09 09:28:18;;;;;;;5.75;3.40;;;;;;;22.77;63.05;101514.03;4958489;28;20525;-80
2021/07/09 09:30:45;;;;;;;4.93;3.63;;;;;;;22.73;63.42;101519.25;4958649;28;20030;-78
2021/07/09 09:33:12;;;;;;;5.60;3.33;;;;;;;22.63;63.90;101528.72;4979847;28;20026;-80
2021/07/09 09:35:42;;;;;;;4.32;3.55;;;;;;;22.52;63.62;101523.34;4976980;28;20376;-80
2021/07/09 09:38:17;;;;;;;5.55;3.35;;;;;;;22.35;63.64;101523.06;4977087;28;20027;-79
2021/07/09 09:40:45;;;;;;;5.53;3.53;;;;;;;22.24;63.88;101527.28;4992898;28;20514;-79
2021/07/09 09:43:16;;;;;;;8.00;3.67;;;;;;;22.16;63.78;101525.44;4977094;28;20058;-80
2021/07/09 09:45:43;;;;;;;5.53;3.15;;;;;;;22.11;63.83;101527.09;4975989;28;20037;-81
2021/07/09 09:48:11;;;;;;;7.15;3.78;;;;;;;22.08;64.43;101529.69;4974013;28;20038;-81
2021/07/09 09:50:50;;;;;;;5.20;2.63;;;;;;;22.10;64.33;101530.59;4982348;28;20030;-79
2021/07/09 09:53:17;;;;;;;5.40;3.23;;;;;;;22.10;63.53;101530.59;4984347;28;20520;-79
2021/07/09 09:55:42;;;;;;;4.70;3.33;;;;;;;22.10;63.69;101530.59;4984293;28;20010;-82
2021/07/09 09:58:19;;;;;;;4.95;3.05;;;;;;;22.11;64.42;101532.34;5002932;28;20017;-78
2021/07/09 10:00:49;;;;;;;9.27;3.28;;;;;;;22.12;64.92;101538.47;4976192;28;20050;-80
2021/07/09 10:03:15;;;;;;;4.05;3.55;;;;;;;22.08;63.17;101526.16;4992194;28;20029;-80
2021/07/09 10:05:51;;;;;;;4.57;3.88;;;;;;;22.06;63.78;101523.53;4973875;28;20117;-80
2021/07/09 10:08:21;;;;;;;6.75;3.55;;;;;;;22.00;64.56;101508.56;4972045;28;20033;-79
2021/07/09 10:10:48;;;;;;;5.47;3.38;;;;;;;22.03;64.53;101507.75;4993882;28;20049;-80
2021/07/09 10:13:15;;;;;;;4.88;3.80;;;;;;;21.99;65.28;101505.94;4988252;28;20033;-80
2021/07/09 10:15:42;;;;;;;6.03;4.10;;;;;;;21.98;65.35;101519.91;4985657;28;20025;-80
2021/07/09 10:18:13;;;;;;;7.82;4.03;;;;;;;21.98;65.68;101514.66;4991247;28;20037;-80
2021/07/09 10:20:40;;;;;;;8.20;4.53;;;;;;;21.96;67.66;101516.38;4983625;28;20030;-80
2021/07/09 10:23:06;;;;;;;11.68;4.80;;;;;;;21.91;69.19;101518.03;4977813;28;20026;-75
2021/07/09 10:25:32;;;;;;;5.72;4.50;;;;;;;21.86;68.84;101516.22;4988555;28;20038;-75
2021/07/09 10:27:58;;;;;;;6.25;4.50;;;;;;;21.79;69.02;101501.25;5001586;28;20025;-75
2021/07/09 10:30:34;;;;;;;5.45;4.20;;;;;;;21.76;68.96;101503.81;5001694;28;20021;-75
2021/07/09 10:33:00;;;;;;;8.13;4.63;;;;;;;21.69;69.05;101501.91;4981866;28;20054;-75
2021/07/09 10:35:32;;;;;;;6.72;5.05;;;;;;;21.69;68.83;101496.69;4991212;28;20502;-75
2021/07/09 10:38:14;;;;;;;7.95;4.90;;;;;;;21.65;68.99;101497.50;4977737;28;20108;-75
2021/07/09 10:40:39;;;;;;;12.60;4.72;;;;;;;21.64;68.42;101499.25;4985621;28;20041;-75
2021/07/09 10:43:06;;;;;;;11.75;4.40;;;;;;;21.60;68.38;101498.25;4974146;28;20022;-76
2021/07/09 10:45:32;;;;;;;7.20;4.32;;;;;;;21.62;68.39;101502.66;4990331;28;20026;-76
2021/07/09 10:48:03;;;;;;;8.57;4.47;;;;;;;21.59;68.43;101491.25;4974559;28;20030;-76
2021/07/09 10:50:53;;;;;;;6.20;4.45;;;;;;;21.60;69.14;101487.78;4990595;28;20034;-76
2021/07/09 10:53:25;;;;;;;8.23;5.05;;;;;;;21.59;70.02;101491.25;4970819;28;20026;-76
2021/07/09 10:56:02;;;;;;;10.82;6.30;;;;;;;21.56;71.99;101491.19;4984147;28;20138;-75
2021/07/09 10:58:30;;;;;;;11.18;5.57;;;;;;;21.55;72.36;101494.69;4991680;28;20041;-75
2021/07/09 11:01:17;;;;;;;9.60;5.40;;;;;;;21.49;72.08;101493.72;4974388;28;20380;-75
2021/07/09 11:04:07;;;;;;;9.45;5.35;;;;;;;21.47;72.63;101491.03;4974212;28;20419;-74
2021/07/09 11:06:32;;;;;;;6.95;4.25;;;;;;;21.43;72.78;101489.22;4974280;28;20034;-75
2021/07/09 11:09:03;;;;;;;7.50;4.40;;;;;;;21.36;71.30;101497.81;4991403;28;20079;-75
2021/07/09 11:11:36;;;;;;;7.18;3.85;;;;;;;21.31;71.19;101496.00;4997812;28;20342;-75
2021/07/09 11:14:05;;;;;;;6.45;3.90;;;;;;;21.31;71.46;101506.50;5007383;28;20072;-76
2021/07/09 11:16:35;;;;;;;4.72;3.72;;;;;;;21.29;72.04;101496.84;4993629;28;20049;-75
2021/07/09 11:19:03;;;;;;;5.57;3.00;;;;;;;21.29;71.51;101497.72;4993759;28;20420;-75
2021/07/09 11:21:31;;;;;;;7.78;3.92;;;;;;;21.30;71.26;101499.50;5000649;28;20476;-75
2021/07/09 11:24:01;;;;;;;6.40;3.58;;;;;;;21.27;70.70;101504.66;4990711;28;20396;-75